sensor_id;sensor_type;location;lat;lon;timestamp;pressure;altitude;pressure_sealevel;temperature;humidity
66681;BME280;53575;51.366;12.350;2022-11-15T00:00:43;100183.69;;;6.18;100.00
66681;BME280;53575;51.366;12.350;2022-11-15T00:03:09;100180.22;;;6.19;100.00
66681;BME280;53575;51.366;12.350;2022-11-15T00:05:35;100181.16;;;6.27;100.00
66681;BME280;53575;51.366;12.350;2022-11-15T00:08:01;100177.63;;;6.21;100.00
66681;BME280;53575;51.366;12.350;2022-11-15T00:10:28;100180.34;;;6.36;100.00
66681;BME280;53575;51.366;12.350;2022-11-15T00:12:53;100180.34;;;6.36;100.00
66681;BME280;53575;51.366;12.350;2022-11-15T00:15:19;100175.13;;;6.33;100.00
66681;BME280;53575;51.366;12.350;2022-11-15T00:17:44;100166.56;;;6.45;100.00
66681;BME280;53575;51.366;12.350;2022-11-15T00:20:19;100168.28;;;6.40;100.00
66681;BME280;53575;51.366;12.350;2022-11-15T00:22:44;100163.88;;;6.31;100.00
66681;BME280;53575;51.366;12.350;2022-11-15T00:25:10;100163.81;;;6.23;100.00
66681;BME280;53575;51.366;12.350;2022-11-15T00:27:35;100166.38;;;6.19;100.00
66681;BME280;53575;51.366;12.350;2022-11-15T00:30:01;100156.75;;;6.10;100.00
66681;BME280;53575;51.366;12.350;2022-11-15T00:32:26;100174.22;;;6.26;100.00
66681;BME280;53575;51.366;12.350;2022-11-15T00:34:51;100170.88;;;6.40;100.00
66681;BME280;53575;51.366;12.350;2022-11-15T00:37:17;100168.38;;;6.49;100.00
66681;BME280;53575;51.366;12.350;2022-11-15T00:39:44;100161.47;;;6.55;100.00
66681;BME280;53575;51.366;12.350;2022-11-15T00:42:09;100164.13;;;6.63;100.00
66681;BME280;53575;51.366;12.350;2022-11-15T00:44:34;100156.38;;;6.68;100.00
66681;BME280;53575;51.366;12.350;2022-11-15T00:47:01;100160.81;;;6.81;100.00
66681;BME280;53575;51.366;12.350;2022-11-15T00:49:27;100161.63;;;6.78;100.00
66681;BME280;53575;51.366;12.350;2022-11-15T00:51:52;100159.03;;;6.72;100.00
66681;BME280;53575;51.366;12.350;2022-11-15T00:54:17;100165.03;;;6.65;100.00
66681;BME280;53575;51.366;12.350;2022-11-15T00:56:43;100164.16;;;6.66;100.00
66681;BME280;53575;51.366;12.350;2022-11-15T00:59:08;100151.13;;;6.60;100.00
66681;BME280;53575;51.366;12.350;2022-11-15T01:01:34;100152.84;;;6.58;100.00
66681;BME280;53575;51.366;12.350;2022-11-15T01:03:59;100154.59;;;6.62;100.00
66681;BME280;53575;51.366;12.350;2022-11-15T01:06:25;100149.38;;;6.59;100.00
66681;BME280;53575;51.366;12.350;2022-11-15T01:08:50;100152.91;;;6.67;100.00
66681;BME280;53575;51.366;12.350;2022-11-15T01:11:15;100145.16;;;6.73;100.00
66681;BME280;53575;51.366;12.350;2022-11-15T01:13:41;100146.97;;;6.87;100.00
66681;BME280;53575;51.366;12.350;2022-11-15T01:16:17;100152.97;;;6.78;100.00
66681;BME280;53575;51.366;12.350;2022-11-15T01:18:44;100148.59;;;6.69;100.00
66681;BME280;53575;51.366;12.350;2022-11-15T01:21:12;100135.69;;;6.75;100.00
66681;BME280;53575;51.366;12.350;2022-11-15T01:23:38;100142.56;;;6.69;100.00
66681;BME280;53575;51.366;12.350;2022-11-15T01:26:07;100150.38;;;6.78;100.00
66681;BME280;53575;51.366;12.350;2022-11-15T01:28:34;100146.13;;;6.83;100.00
66681;BME280;53575;51.366;12.350;2022-11-15T01:31:02;100153.81;;;6.72;100.00
66681;BME280;53575;51.366;12.350;2022-11-15T01:33:29;100149.53;;;6.77;100.00
66681;BME280;53575;51.366;12.350;2022-11-15T01:35:55;100142.63;;;6.81;100.00
66681;BME280;53575;51.366;12.350;2022-11-15T01:38:22;100140.00;;;6.76;100.00
66681;BME280;53575;51.366;12.350;2022-11-15T01:40:48;100137.47;;;6.89;100.00
66681;BME280;53575;51.366;12.350;2022-11-15T01:46:31;100131.34;;;6.76;100.00
66681;BME280;53575;51.366;12.350;2022-11-15T01:48:59;100134.81;;;6.76;100.00
66681;BME280;53575;51.366;12.350;2022-11-15T01:51:26;100136.50;;;6.70;100.00
66681;BME280;53575;51.366;12.350;2022-11-15T01:53:55;100125.25;;;6.69;100.00
66681;BME280;53575;51.366;12.350;2022-11-15T01:56:25;100112.22;;;6.65;100.00
66681;BME280;53575;51.366;12.350;2022-11-15T01:58:55;100107.81;;;6.54;100.00
66681;BME280;53575;51.366;12.350;2022-11-15T02:01:24;100108.75;;;6.67;100.00
66681;BME280;53575;51.366;12.350;2022-11-15T02:03:55;100099.28;;;6.69;100.00
66681;BME280;53575;51.366;12.350;2022-11-15T02:06:22;100099.28;;;6.71;100.00
66681;BME280;53575;51.366;12.350;2022-11-15T02:08:49;100108.00;;;6.85;100.00
66681;BME280;53575;51.366;12.350;2022-11-15T02:11:14;100098.38;;;6.67;100.00
66681;BME280;53575;51.366;12.350;2022-11-15T02:13:40;100087.09;;;6.59;100.00
66681;BME280;53575;51.366;12.350;2022-11-15T02:36:29;100074.91;;;6.49;100.00
66681;BME280;53575;51.366;12.350;2022-11-15T02:39:04;100072.28;;;6.44;100.00
66681;BME280;53575;51.366;12.350;2022-11-15T02:46:51;100070.47;;;6.32;100.00
66681;BME280;53575;51.366;12.350;2022-11-15T02:49:40;100066.97;;;6.26;100.00
66681;BME280;53575;51.366;12.350;2022-11-15T02:52:07;100076.47;;;6.25;100.00
66681;BME280;53575;51.366;12.350;2022-11-15T02:54:33;100076.47;;;6.25;100.00
66681;BME280;53575;51.366;12.350;2022-11-15T02:57:05;100079.06;;;6.24;100.00
66681;BME280;53575;51.366;12.350;2022-11-15T03:08:08;100069.41;;;6.04;100.00
66681;BME280;53575;51.366;12.350;2022-11-15T03:11:09;100065.94;;;6.05;100.00
66681;BME280;53575;51.366;12.350;2022-11-15T03:16:09;100059.00;;;6.03;100.00
66681;BME280;53575;51.366;12.350;2022-11-15T03:18:42;100062.50;;;6.08;100.00
66681;BME280;53575;51.366;12.350;2022-11-15T03:21:11;100059.06;;;6.10;100.00
66681;BME280;53575;51.366;12.350;2022-11-15T03:23:39;100058.19;;;6.10;100.00
66681;BME280;53575;51.366;12.350;2022-11-15T03:26:07;100062.50;;;6.08;100.00
66681;BME280;53575;51.366;12.350;2022-11-15T03:28:42;100061.63;;;6.07;100.00
66681;BME280;53575;51.366;12.350;2022-11-15T03:31:11;100054.69;;;6.03;100.00
66681;BME280;53575;51.366;12.350;2022-11-15T03:33:58;100055.53;;;6.01;100.00
66681;BME280;53575;51.366;12.350;2022-11-15T03:36:25;100044.25;;;5.99;100.00
66681;BME280;53575;51.366;12.350;2022-11-15T03:38:56;100052.06;;;6.00;100.00
66681;BME280;53575;51.366;12.350;2022-11-15T03:41:29;100052.03;;;5.99;100.00
66681;BME280;53575;51.366;12.350;2022-11-15T03:44:01;100044.31;;;6.03;100.00
66681;BME280;53575;51.366;12.350;2022-11-15T03:46:38;100050.31;;;5.98;100.00
66681;BME280;53575;51.366;12.350;2022-11-15T03:49:13;100051.16;;;5.97;100.00
66681;BME280;53575;51.366;12.350;2022-11-15T03:51:40;100056.31;;;5.92;100.00
66681;BME280;53575;51.366;12.350;2022-11-15T03:54:06;100049.31;;;5.86;100.00
66681;BME280;53575;51.366;12.350;2022-11-15T03:56:31;100057.09;;;5.86;100.00
66681;BME280;53575;51.366;12.350;2022-11-15T03:58:57;100054.53;;;5.88;100.00
66681;BME280;53575;51.366;12.350;2022-11-15T04:01:22;100051.88;;;5.83;100.00
66681;BME280;53575;51.366;12.350;2022-11-15T04:03:48;100055.38;;;5.87;100.00
66681;BME280;53575;51.366;12.350;2022-11-15T04:06:13;100051.88;;;5.83;100.00
66681;BME280;53575;51.366;12.350;2022-11-15T04:08:39;100051.91;;;5.86;100.00
66681;BME280;53575;51.366;12.350;2022-11-15T04:11:04;100055.44;;;5.92;100.00
66681;BME280;53575;51.366;12.350;2022-11-15T04:13:30;100055.50;;;5.96;100.00
66681;BME280;53575;51.366;12.350;2022-11-15T04:15:55;100050.31;;;5.96;100.00
66681;BME280;53575;51.366;12.350;2022-11-15T04:18:20;100049.44;;;5.96;100.00
66681;BME280;53575;51.366;12.350;2022-11-15T04:20:46;100046.84;;;5.97;100.00
66681;BME280;53575;51.366;12.350;2022-11-15T04:23:30;100045.09;;;5.93;100.00
66681;BME280;53575;51.366;12.350;2022-11-15T04:26:20;100050.22;;;5.90;100.00
66681;BME280;53575;51.366;12.350;2022-11-15T04:28:46;100048.44;;;5.86;100.00
66681;BME280;53575;51.366;12.350;2022-11-15T04:31:30;100051.81;;;5.74;100.00
66681;BME280;53575;51.366;12.350;2022-11-15T04:33:56;100050.91;;;5.72;100.00
66681;BME280;53575;51.366;12.350;2022-11-15T04:36:22;100043.16;;;5.74;100.00
66681;BME280;53575;51.366;12.350;2022-11-15T04:39:07;100050.91;;;5.71;100.00
66681;BME280;53575;51.366;12.350;2022-11-15T04:41:32;100049.22;;;5.76;100.00
66681;BME280;53575;51.366;12.350;2022-11-15T04:43:58;100047.56;;;5.82;100.00
66681;BME280;53575;51.366;12.350;2022-11-15T04:46:24;100031.13;;;5.83;100.00
66681;BME280;53575;51.366;12.350;2022-11-15T04:48:50;100043.38;;;5.92;100.00
66681;BME280;53575;51.366;12.350;2022-11-15T04:51:16;100043.41;;;6.00;100.00
66681;BME280;53575;51.366;12.350;2022-11-15T04:53:42;100040.78;;;5.98;100.00
66681;BME280;53575;51.366;12.350;2022-11-15T04:56:07;100042.56;;;5.99;100.00
66681;BME280;53575;51.366;12.350;2022-11-15T04:58:33;100040.88;;;6.03;100.00
66681;BME280;53575;51.366;12.350;2022-11-15T05:01:09;100037.38;;;6.02;100.00
66681;BME280;53575;51.366;12.350;2022-11-15T05:03:34;100040.69;;;5.89;100.00
66681;BME280;53575;51.366;12.350;2022-11-15T05:06:18;100038.09;;;5.91;100.00
66681;BME280;53575;51.366;12.350;2022-11-15T05:08:44;100031.31;;;6.02;100.00
66681;BME280;53575;51.366;12.350;2022-11-15T05:11:09;100022.69;;;6.06;100.00
66681;BME280;53575;51.366;12.350;2022-11-15T05:13:34;100022.72;;;6.07;100.00
66681;BME280;53575;51.366;12.350;2022-11-15T05:16:00;100022.75;;;6.14;100.00
66681;BME280;53575;51.366;12.350;2022-11-15T05:18:25;100020.16;;;6.14;100.00
66681;BME280;53575;51.366;12.350;2022-11-15T05:20:51;100018.44;;;6.11;100.00
66681;BME280;53575;51.366;12.350;2022-11-15T05:23:16;100015.03;;;6.18;100.00
66681;BME280;53575;51.366;12.350;2022-11-15T05:25:42;100021.91;;;6.16;100.00
66681;BME280;53575;51.366;12.350;2022-11-15T05:28:07;100021.88;;;6.10;100.00
66681;BME280;53575;51.366;12.350;2022-11-15T05:30:32;100015.78;;;6.06;100.00
66681;BME280;53575;51.366;12.350;2022-11-15T05:32:58;100011.47;;;6.05;100.00
66681;BME280;53575;51.366;12.350;2022-11-15T05:35:34;100005.34;;;5.99;100.00
66681;BME280;53575;51.366;12.350;2022-11-15T05:38:02;100007.97;;;6.02;100.00
66681;BME280;53575;51.366;12.350;2022-11-15T05:40:28;100000.19;;;6.02;100.00
66681;BME280;53575;51.366;12.350;2022-11-15T05:42:55;100002.06;;;6.18;100.00
66681;BME280;53575;51.366;12.350;2022-11-15T05:45:21;100002.91;;;6.16;100.00
66681;BME280;53575;51.366;12.350;2022-11-15T05:47:47;100003.75;;;6.15;100.00
66681;BME280;53575;51.366;12.350;2022-11-15T05:50:15;100010.63;;;6.08;100.00
66681;BME280;53575;51.366;12.350;2022-11-15T05:52:42;99997.69;;;6.13;100.00
66681;BME280;53575;51.366;12.350;2022-11-15T05:55:08;99999.41;;;6.12;100.00
66681;BME280;53575;51.366;12.350;2022-11-15T05:57:34;100000.22;;;6.05;100.00
66681;BME280;53575;51.366;12.350;2022-11-15T05:59:59;99980.31;;;6.01;100.00
66681;BME280;53575;51.366;12.350;2022-11-15T06:02:25;100002.81;;;6.03;100.00
66681;BME280;53575;51.366;12.350;2022-11-15T06:04:50;100001.91;;;5.97;100.00
66681;BME280;53575;51.366;12.350;2022-11-15T06:07:16;99996.75;;;6.06;100.00
66681;BME280;53575;51.366;12.350;2022-11-15T06:09:41;99998.63;;;6.24;100.00
66681;BME280;53575;51.366;12.350;2022-11-15T06:12:06;99993.50;;;6.34;100.00
66681;BME280;53575;51.366;12.350;2022-11-15T06:14:32;99997.72;;;6.20;100.00
66681;BME280;53575;51.366;12.350;2022-11-15T06:16:57;100004.59;;;6.12;100.00
66681;BME280;53575;51.366;12.350;2022-11-15T06:19:23;99999.34;;;6.04;100.00
66681;BME280;53575;51.366;12.350;2022-11-15T06:21:48;100005.31;;;5.93;100.00
66681;BME280;53575;51.366;12.350;2022-11-15T06:24:13;100003.66;;;6.01;100.00
66681;BME280;53575;51.366;12.350;2022-11-15T06:26:39;100006.97;;;5.87;100.00
66681;BME280;53575;51.366;12.350;2022-11-15T06:29:04;100006.03;;;5.79;100.00
66681;BME280;53575;51.366;12.350;2022-11-15T06:31:30;100003.44;;;5.76;100.00
66681;BME280;53575;51.366;12.350;2022-11-15T06:33:55;100012.09;;;5.78;100.00
66681;BME280;53575;51.366;12.350;2022-11-15T06:36:21;100008.59;;;5.75;100.00
66681;BME280;53575;51.366;12.350;2022-11-15T06:38:47;100018.97;;;5.73;100.00
66681;BME280;53575;51.366;12.350;2022-11-15T06:41:13;100015.50;;;5.74;100.00
66681;BME280;53575;51.366;12.350;2022-11-15T06:43:40;100021.56;;;5.73;100.00
66681;BME280;53575;51.366;12.350;2022-11-15T06:46:06;100019.84;;;5.74;100.00
66681;BME280;53575;51.366;12.350;2022-11-15T06:48:33;100022.41;;;5.75;100.00
66681;BME280;53575;51.366;12.350;2022-11-15T06:51:00;100028.50;;;5.79;100.00
66681;BME280;53575;51.366;12.350;2022-11-15T06:53:26;100017.28;;;5.78;100.00
66681;BME280;53575;51.366;12.350;2022-11-15T06:55:52;100025.13;;;5.86;100.00
66681;BME280;53575;51.366;12.350;2022-11-15T06:58:18;100031.19;;;5.90;100.00
66681;BME280;53575;51.366;12.350;2022-11-15T07:00:44;100024.28;;;5.89;100.00
66681;BME280;53575;51.366;12.350;2022-11-15T07:03:09;100013.09;;;5.94;100.00
66681;BME280;53575;51.366;12.350;2022-11-15T07:05:35;100024.38;;;5.96;100.00
66681;BME280;53575;51.366;12.350;2022-11-15T07:08:01;100030.44;;;5.97;100.00
66681;BME280;53575;51.366;12.350;2022-11-15T07:10:27;100031.31;;;6.02;100.00
66681;BME280;53575;51.366;12.350;2022-11-15T07:12:54;100026.09;;;5.96;100.00
66681;BME280;53575;51.366;12.350;2022-11-15T07:15:22;100025.28;;;6.03;100.00
66681;BME280;53575;51.366;12.350;2022-11-15T07:17:48;100026.13;;;6.02;100.00
66681;BME280;53575;51.366;12.350;2022-11-15T07:20:14;100033.06;;;6.03;100.00
66681;BME280;53575;51.366;12.350;2022-11-15T07:22:40;100042.66;;;6.13;100.00
66681;BME280;53575;51.366;12.350;2022-11-15T07:25:06;100035.78;;;6.20;100.00
66681;BME280;53575;51.366;12.350;2022-11-15T07:27:32;100026.31;;;6.29;100.00
66681;BME280;53575;51.366;12.350;2022-11-15T07:29:57;100017.78;;;6.46;100.00
66681;BME280;53575;51.366;12.350;2022-11-15T07:32:23;100032.47;;;6.44;100.00
66681;BME280;53575;51.366;12.350;2022-11-15T07:34:48;100035.06;;;6.44;100.00
66681;BME280;53575;51.366;12.350;2022-11-15T07:37:14;100028.16;;;6.41;100.00
66681;BME280;53575;51.366;12.350;2022-11-15T07:39:39;100034.22;;;6.46;100.00
66681;BME280;53575;51.366;12.350;2022-11-15T07:42:05;100025.63;;;6.58;100.00
66681;BME280;53575;51.366;12.350;2022-11-15T07:44:49;100029.97;;;6.59;100.00
66681;BME280;53575;51.366;12.350;2022-11-15T07:47:14;100025.63;;;6.58;100.00
66681;BME280;53575;51.366;12.350;2022-11-15T07:49:40;100027.38;;;6.64;100.00
66681;BME280;53575;51.366;12.350;2022-11-15T07:52:05;100030.03;;;6.71;100.00
66681;BME280;53575;51.366;12.350;2022-11-15T07:54:30;100037.84;;;6.74;100.00
66681;BME280;53575;51.366;12.350;2022-11-15T07:56:56;100039.63;;;6.83;100.00
66681;BME280;53575;51.366;12.350;2022-11-15T07:59:22;100042.28;;;6.98;100.00
66681;BME280;53575;51.366;12.350;2022-11-15T08:01:47;100038.84;;;7.13;100.00
66681;BME280;53575;51.366;12.350;2022-11-15T08:04:13;100029.38;;;7.23;100.00
66681;BME280;53575;51.366;12.350;2022-11-15T08:06:38;100036.31;;;7.30;99.92
66681;BME280;53575;51.366;12.350;2022-11-15T08:09:04;100031.13;;;7.44;98.80
66681;BME280;53575;51.366;12.350;2022-11-15T08:11:29;100025.09;;;7.49;98.57
66681;BME280;53575;51.366;12.350;2022-11-15T08:13:55;100026.84;;;7.53;98.10
66681;BME280;53575;51.366;12.350;2022-11-15T08:16:20;100015.59;;;7.65;97.28
66681;BME280;53575;51.366;12.350;2022-11-15T08:18:46;100021.66;;;7.84;96.38
66681;BME280;53575;51.366;12.350;2022-11-15T08:21:14;100030.31;;;8.12;94.10
66681;BME280;53575;51.366;12.350;2022-11-15T08:23:42;100026.88;;;8.21;93.16
66681;BME280;53575;51.366;12.350;2022-11-15T08:26:08;100025.13;;;8.29;92.35
66681;BME280;53575;51.366;12.350;2022-11-15T08:28:34;100023.38;;;8.33;92.03
66681;BME280;53575;51.366;12.350;2022-11-15T08:30:59;100026.00;;;8.43;91.18
66681;BME280;53575;51.366;12.350;2022-11-15T08:33:24;100017.28;;;8.55;90.55
66681;BME280;53575;51.366;12.350;2022-11-15T08:35:50;100006.88;;;8.46;90.79
66681;BME280;53575;51.366;12.350;2022-11-15T08:38:15;100014.69;;;8.55;90.75
66681;BME280;53575;51.366;12.350;2022-11-15T08:40:41;100007.72;;;8.60;90.05
66681;BME280;53575;51.366;12.350;2022-11-15T08:43:06;100012.94;;;8.59;90.30
66681;BME280;53575;51.366;12.350;2022-11-15T08:45:34;100006.88;;;8.52;91.00
66681;BME280;53575;51.366;12.350;2022-11-15T08:48:01;100003.34;;;8.64;89.93
66681;BME280;53575;51.366;12.350;2022-11-15T08:50:27;99996.41;;;8.58;90.48
66681;BME280;53575;51.366;12.350;2022-11-15T08:52:52;99999.00;;;8.70;89.32
66681;BME280;53575;51.366;12.350;2022-11-15T08:55:18;100002.47;;;8.74;89.34
66681;BME280;53575;51.366;12.350;2022-11-15T08:57:43;100004.16;;;8.79;88.69
66681;BME280;53575;51.366;12.350;2022-11-15T09:00:09;100002.31;;;9.03;86.45
66681;BME280;53575;51.366;12.350;2022-11-15T09:02:37;100001.38;;;9.18;85.63
66681;BME280;53575;51.366;12.350;2022-11-15T09:05:04;99998.75;;;9.21;85.37
66681;BME280;53575;51.366;12.350;2022-11-15T09:07:30;99994.41;;;9.21;85.73
66681;BME280;53575;51.366;12.350;2022-11-15T09:09:57;99994.41;;;9.21;85.60
66681;BME280;53575;51.366;12.350;2022-11-15T09:12:23;99995.22;;;9.30;85.10
66681;BME280;53575;51.366;12.350;2022-11-15T09:14:48;99990.84;;;9.36;84.36
66681;BME280;53575;51.366;12.350;2022-11-15T09:17:14;99989.06;;;9.43;83.78
66681;BME280;53575;51.366;12.350;2022-11-15T09:19:39;99992.41;;;9.63;83.17
66681;BME280;53575;51.366;12.350;2022-11-15T09:22:08;99988.00;;;9.65;82.04
66681;BME280;53575;51.366;12.350;2022-11-15T09:24:34;99986.22;;;9.72;81.90
66681;BME280;53575;51.366;12.350;2022-11-15T09:27:00;99980.94;;;9.80;81.15
66681;BME280;53575;51.366;12.350;2022-11-15T09:29:25;99990.41;;;9.91;80.10
66681;BME280;53575;51.366;12.350;2022-11-15T09:31:54;99975.53;;;10.04;79.61
66681;BME280;53575;51.366;12.350;2022-11-15T09:34:19;99978.91;;;10.14;79.21
66681;BME280;53575;51.366;12.350;2022-11-15T09:36:46;99982.22;;;10.33;78.41
66681;BME280;53575;51.366;12.350;2022-11-15T09:39:11;99977.88;;;10.33;78.04
66681;BME280;53575;51.366;12.350;2022-11-15T09:42:02;99978.66;;;10.41;78.09
66681;BME280;53575;51.366;12.350;2022-11-15T09:44:49;99974.09;;;10.59;77.23
66681;BME280;53575;51.366;12.350;2022-11-15T09:49:51;99964.38;;;10.71;76.50
66681;BME280;53575;51.366;12.350;2022-11-15T09:52:18;99967.63;;;10.89;76.28
66681;BME280;53575;51.366;12.350;2022-11-15T09:54:48;99963.94;;;11.05;74.17
66681;BME280;53575;51.366;12.350;2022-11-15T09:57:28;99956.00;;;11.11;74.41
66681;BME280;53575;51.366;12.350;2022-11-15T10:00:08;99955.09;;;11.15;74.55
66681;BME280;53575;51.366;12.350;2022-11-15T10:02:46;99958.47;;;11.22;74.28
66681;BME280;53575;51.366;12.350;2022-11-15T10:05:20;99957.53;;;11.26;74.25
66681;BME280;53575;51.366;12.350;2022-11-15T10:08:15;99953.78;;;11.44;73.88
66681;BME280;53575;51.366;12.350;2022-11-15T10:10:46;99951.16;;;11.45;73.63
66681;BME280;53575;51.366;12.350;2022-11-15T10:13:20;99938.44;;;11.75;72.45
66681;BME280;53575;51.366;12.350;2022-11-15T10:15:48;99932.19;;;11.82;71.64
66681;BME280;53575;51.366;12.350;2022-11-15T10:20:50;99922.44;;;11.93;71.08
66681;BME280;53575;51.366;12.350;2022-11-15T10:23:19;99929.47;;;11.91;71.36
66681;BME280;53575;51.366;12.350;2022-11-15T10:25:45;99937.34;;;11.91;71.80
66681;BME280;53575;51.366;12.350;2022-11-15T10:30:48;99937.63;;;12.23;69.43
66681;BME280;53575;51.366;12.350;2022-11-15T10:41:35;99908.31;;;12.49;69.35
66681;BME280;53575;51.366;12.350;2022-11-15T10:46:34;99910.72;;;12.59;68.06
66681;BME280;53575;51.366;12.350;2022-11-15T10:49:20;99910.38;;;12.75;67.17
66681;BME280;53575;51.366;12.350;2022-11-15T10:51:49;99906.06;;;12.72;68.08
66681;BME280;53575;51.366;12.350;2022-11-15T10:54:22;99906.78;;;12.79;67.27
66681;BME280;53575;51.366;12.350;2022-11-15T10:56:51;99897.69;;;12.95;66.26
66681;BME280;53575;51.366;12.350;2022-11-15T10:59:26;99891.34;;;13.05;65.86
66681;BME280;53575;51.366;12.350;2022-11-15T11:01:53;99890.50;;;13.03;66.31
66681;BME280;53575;51.366;12.350;2022-11-15T11:04:18;99897.69;;;12.95;68.57
66681;BME280;53575;51.366;12.350;2022-11-15T11:11:59;99876.75;;;13.32;66.58
66681;BME280;53575;51.366;12.350;2022-11-15T11:14:34;99876.00;;;13.26;67.20
66681;BME280;53575;51.366;12.350;2022-11-15T11:20:10;99877.72;;;13.27;67.98
66681;BME280;53575;51.366;12.350;2022-11-15T11:31:01;99864.03;;;13.50;66.82
66681;BME280;53575;51.366;12.350;2022-11-15T11:33:33;99864.63;;;13.62;66.36
66681;BME280;53575;51.366;12.350;2022-11-15T11:52:22;99823.22;;;14.03;64.63
66681;BME280;53575;51.366;12.350;2022-11-15T12:00:14;99826.13;;;13.94;65.11
66681;BME280;53575;51.366;12.350;2022-11-15T12:02:44;99823.50;;;13.94;65.96
66681;BME280;53575;51.366;12.350;2022-11-15T12:05:38;99814.75;;;13.94;65.97
66681;BME280;53575;51.366;12.350;2022-11-15T12:11:01;99808.44;;;14.01;65.27
66681;BME280;53575;51.366;12.350;2022-11-15T12:13:30;99810.06;;;14.05;65.27
66681;BME280;53575;51.366;12.350;2022-11-15T12:16:22;99803.81;;;14.09;65.59
66681;BME280;53575;51.366;12.350;2022-11-15T12:18:50;99802.94;;;14.08;65.11
66681;BME280;53575;51.366;12.350;2022-11-15T12:24:26;99791.00;;;14.28;64.56
66681;BME280;53575;51.366;12.350;2022-11-15T12:27:02;99782.44;;;14.21;64.97
66681;BME280;53575;51.366;12.350;2022-11-15T12:29:38;99780.56;;;14.25;65.31
66681;BME280;53575;51.366;12.350;2022-11-15T12:32:05;99777.22;;;14.20;65.57
66681;BME280;53575;51.366;12.350;2022-11-15T12:34:41;99774.72;;;14.15;65.86
66681;BME280;53575;51.366;12.350;2022-11-15T12:40:28;99766.19;;;14.07;66.31
66681;BME280;53575;51.366;12.350;2022-11-15T12:42:58;99763.72;;;14.02;66.47
66681;BME280;53575;51.366;12.350;2022-11-15T12:45:44;99751.56;;;13.98;66.67
66681;BME280;53575;51.366;12.350;2022-11-15T12:58:42;99748.63;;;14.38;65.01
66681;BME280;53575;51.366;12.350;2022-11-15T13:01:09;99753.88;;;14.38;64.59
66681;BME280;53575;51.366;12.350;2022-11-15T13:03:35;99751.91;;;14.45;63.76
66681;BME280;53575;51.366;12.350;2022-11-15T13:06:43;99746.16;;;14.62;62.42
66681;BME280;53575;51.366;12.350;2022-11-15T13:11:53;99732.97;;;14.90;61.29
66681;BME280;53575;51.366;12.350;2022-11-15T13:22:24;99735.25;;;15.01;59.52
66681;BME280;53575;51.366;12.350;2022-11-15T13:25:16;99738.81;;;15.00;59.82
66681;BME280;53575;51.366;12.350;2022-11-15T13:27:46;99722.19;;;14.98;59.41
66681;BME280;53575;51.366;12.350;2022-11-15T13:30:18;99725.50;;;14.78;61.06
66681;BME280;53575;51.366;12.350;2022-11-15T13:32:45;99720.25;;;14.76;61.42
66681;BME280;53575;51.366;12.350;2022-11-15T13:35:22;99725.59;;;14.75;61.75
66681;BME280;53575;51.366;12.350;2022-11-15T13:37:48;99725.47;;;14.51;63.09
66681;BME280;53575;51.366;12.350;2022-11-15T13:40:29;99719.25;;;14.54;62.04
66681;BME280;53575;51.366;12.350;2022-11-15T13:42:58;99718.66;;;14.44;62.67
66681;BME280;53575;51.366;12.350;2022-11-15T13:45:24;99718.94;;;14.35;63.31
66681;BME280;53575;51.366;12.350;2022-11-15T13:47:55;99711.38;;;14.24;63.67
66681;BME280;53575;51.366;12.350;2022-11-15T13:50:26;99719.53;;;14.15;64.58
66681;BME280;53575;51.366;12.350;2022-11-15T13:52:52;99713.63;;;14.08;64.75
66681;BME280;53575;51.366;12.350;2022-11-15T13:55:21;99711.25;;;13.99;66.26
66681;BME280;53575;51.366;12.350;2022-11-15T13:57:56;99713.16;;;13.94;66.48
66681;BME280;53575;51.366;12.350;2022-11-15T14:00:27;99714.25;;;13.87;67.22
66681;BME280;53575;51.366;12.350;2022-11-15T14:02:55;99711.97;;;13.75;67.77
66681;BME280;53575;51.366;12.350;2022-11-15T14:05:23;99703.63;;;13.60;68.15
66681;BME280;53575;51.366;12.350;2022-11-15T14:07:58;99699.66;;;13.46;69.45
66681;BME280;53575;51.366;12.350;2022-11-15T14:10:31;99697.44;;;13.32;69.32
66681;BME280;53575;51.366;12.350;2022-11-15T14:12:58;99694.31;;;13.16;70.01
66681;BME280;53575;51.366;12.350;2022-11-15T14:15:34;99693.84;;;13.00;70.76
66681;BME280;53575;51.366;12.350;2022-11-15T14:18:01;99693.25;;;12.89;71.19
66681;BME280;53575;51.366;12.350;2022-11-15T14:23:23;99692.00;;;12.69;72.02
66681;BME280;53575;51.366;12.350;2022-11-15T14:25:59;99687.97;;;12.56;72.44
66681;BME280;53575;51.366;12.350;2022-11-15T14:30:55;99692.81;;;12.36;73.97
66681;BME280;53575;51.366;12.350;2022-11-15T14:33:30;99686.78;;;12.32;74.68
66681;BME280;53575;51.366;12.350;2022-11-15T14:35:59;99685.22;;;12.25;75.55
66681;BME280;53575;51.366;12.350;2022-11-15T14:38:27;99682.78;;;12.17;76.56
66681;BME280;53575;51.366;12.350;2022-11-15T14:40:53;99680.34;;;12.10;77.18
66681;BME280;53575;51.366;12.350;2022-11-15T14:43:20;99684.84;;;12.03;77.96
66681;BME280;53575;51.366;12.350;2022-11-15T14:45:46;99678.97;;;11.92;78.78
66681;BME280;53575;51.366;12.350;2022-11-15T14:48:11;99679.16;;;11.84;79.19
66681;BME280;53575;51.366;12.350;2022-11-15T14:50:37;99675.81;;;11.76;80.22
66681;BME280;53575;51.366;12.350;2022-11-15T14:53:03;99680.25;;;11.73;80.98
66681;BME280;53575;51.366;12.350;2022-11-15T14:55:34;99670.91;;;11.59;81.69
66681;BME280;53575;51.366;12.350;2022-11-15T14:58:05;99671.97;;;11.51;82.11
66681;BME280;53575;51.366;12.350;2022-11-15T15:00:33;99661.69;;;11.41;82.72
66681;BME280;53575;51.366;12.350;2022-11-15T15:03:00;99659.22;;;11.34;83.24
66681;BME280;53575;51.366;12.350;2022-11-15T15:07:54;99654.22;;;11.21;84.69